sensor_id;sensor_type;location;lat;lon;timestamp;P1;durP1;ratioP1;P2;durP2;ratioP2
65656;SDS011;57397;50.096;14.404;2023-05-10T00:01:27;1.95;;;1.75;;
65656;SDS011;57397;50.096;14.404;2023-05-10T00:03:52;3.00;;;2.28;;
65656;SDS011;57397;50.096;14.404;2023-05-10T00:06:18;3.20;;;1.92;;
65656;SDS011;57397;50.096;14.404;2023-05-10T00:08:44;3.63;;;2.05;;
65656;SDS011;57397;50.096;14.404;2023-05-10T00:11:10;3.30;;;2.25;;
65656;SDS011;57397;50.096;14.404;2023-05-10T00:13:36;2.70;;;1.98;;
65656;SDS011;57397;50.096;14.404;2023-05-10T00:16:01;3.85;;;2.03;;
65656;SDS011;57397;50.096;14.404;2023-05-10T00:18:27;2.33;;;1.90;;
65656;SDS011;57397;50.096;14.404;2023-05-10T00:20:52;2.97;;;2.15;;
65656;SDS011;57397;50.096;14.404;2023-05-10T00:23:18;3.10;;;2.10;;
65656;SDS011;57397;50.096;14.404;2023-05-10T00:25:43;2.85;;;2.20;;
65656;SDS011;57397;50.096;14.404;2023-05-10T00:28:09;3.53;;;2.40;;
65656;SDS011;57397;50.096;14.404;2023-05-10T00:30:35;3.38;;;2.17;;
65656;SDS011;57397;50.096;14.404;2023-05-10T00:33:00;3.10;;;2.30;;
65656;SDS011;57397;50.096;14.404;2023-05-10T00:35:25;3.15;;;2.25;;
65656;SDS011;57397;50.096;14.404;2023-05-10T00:37:51;2.72;;;2.10;;
65656;SDS011;57397;50.096;14.404;2023-05-10T00:40:17;3.28;;;2.22;;
65656;SDS011;57397;50.096;14.404;2023-05-10T00:42:42;3.03;;;2.05;;
65656;SDS011;57397;50.096;14.404;2023-05-10T00:45:08;2.50;;;2.13;;
65656;SDS011;57397;50.096;14.404;2023-05-10T00:47:34;3.20;;;2.30;;
65656;SDS011;57397;50.096;14.404;2023-05-10T00:49:59;4.18;;;2.30;;
65656;SDS011;57397;50.096;14.404;2023-05-10T00:52:26;4.32;;;2.15;;
65656;SDS011;57397;50.096;14.404;2023-05-10T00:54:52;2.47;;;1.85;;
65656;SDS011;57397;50.096;14.404;2023-05-10T00:57:18;2.45;;;1.95;;
65656;SDS011;57397;50.096;14.404;2023-05-10T00:59:44;2.95;;;2.08;;
65656;SDS011;57397;50.096;14.404;2023-05-10T01:02:10;2.45;;;2.15;;
65656;SDS011;57397;50.096;14.404;2023-05-10T01:04:36;3.30;;;2.30;;
65656;SDS011;57397;50.096;14.404;2023-05-10T01:07:02;3.95;;;2.00;;
65656;SDS011;57397;50.096;14.404;2023-05-10T01:09:27;2.40;;;2.00;;
65656;SDS011;57397;50.096;14.404;2023-05-10T01:11:53;7.15;;;2.40;;
65656;SDS011;57397;50.096;14.404;2023-05-10T01:14:19;2.85;;;1.95;;
65656;SDS011;57397;50.096;14.404;2023-05-10T01:16:46;3.47;;;2.20;;
65656;SDS011;57397;50.096;14.404;2023-05-10T01:19:16;2.67;;;2.15;;
65656;SDS011;57397;50.096;14.404;2023-05-10T01:22:02;3.00;;;2.03;;
65656;SDS011;57397;50.096;14.404;2023-05-10T01:27:42;2.47;;;1.90;;
65656;SDS011;57397;50.096;14.404;2023-05-10T01:41:51;2.20;;;1.80;;
65656;SDS011;57397;50.096;14.404;2023-05-10T01:49:32;2.50;;;1.90;;
65656;SDS011;57397;50.096;14.404;2023-05-10T01:52:04;3.35;;;1.88;;
65656;SDS011;57397;50.096;14.404;2023-05-10T01:54:32;2.88;;;2.00;;
65656;SDS011;57397;50.096;14.404;2023-05-10T01:57:00;2.80;;;2.00;;
65656;SDS011;57397;50.096;14.404;2023-05-10T01:59:29;2.28;;;1.80;;
65656;SDS011;57397;50.096;14.404;2023-05-10T02:01:57;2.15;;;1.70;;
65656;SDS011;57397;50.096;14.404;2023-05-10T02:04:24;2.58;;;2.00;;
65656;SDS011;57397;50.096;14.404;2023-05-10T02:06:51;2.25;;;2.00;;
65656;SDS011;57397;50.096;14.404;2023-05-10T02:09:18;2.20;;;1.73;;
65656;SDS011;57397;50.096;14.404;2023-05-10T02:11:45;2.00;;;1.60;;
65656;SDS011;57397;50.096;14.404;2023-05-10T02:14:13;2.30;;;1.90;;
65656;SDS011;57397;50.096;14.404;2023-05-10T02:16:39;2.47;;;1.90;;
65656;SDS011;57397;50.096;14.404;2023-05-10T02:19:05;2.60;;;1.80;;
65656;SDS011;57397;50.096;14.404;2023-05-10T02:21:32;2.47;;;1.92;;
65656;SDS011;57397;50.096;14.404;2023-05-10T02:23:59;2.70;;;1.80;;
65656;SDS011;57397;50.096;14.404;2023-05-10T02:26:24;2.30;;;1.70;;
65656;SDS011;57397;50.096;14.404;2023-05-10T02:28:51;2.05;;;1.75;;
65656;SDS011;57397;50.096;14.404;2023-05-10T02:31:18;2.67;;;1.70;;
65656;SDS011;57397;50.096;14.404;2023-05-10T02:33:44;2.67;;;1.80;;
65656;SDS011;57397;50.096;14.404;2023-05-10T02:36:11;2.40;;;1.90;;
65656;SDS011;57397;50.096;14.404;2023-05-10T02:38:37;2.42;;;1.60;;
65656;SDS011;57397;50.096;14.404;2023-05-10T02:41:03;2.72;;;1.73;;
65656;SDS011;57397;50.096;14.404;2023-05-10T02:43:31;2.97;;;1.60;;
65656;SDS011;57397;50.096;14.404;2023-05-10T02:45:57;2.80;;;1.75;;
65656;SDS011;57397;50.096;14.404;2023-05-10T02:48:23;2.10;;;1.80;;
65656;SDS011;57397;50.096;14.404;2023-05-10T02:50:48;2.83;;;1.70;;
65656;SDS011;57397;50.096;14.404;2023-05-10T02:53:18;2.45;;;1.83;;
65656;SDS011;57397;50.096;14.404;2023-05-10T02:55:49;2.28;;;1.67;;
65656;SDS011;57397;50.096;14.404;2023-05-10T02:58:17;3.15;;;1.73;;
65656;SDS011;57397;50.096;14.404;2023-05-10T03:00:46;2.63;;;2.00;;
65656;SDS011;57397;50.096;14.404;2023-05-10T03:03:11;2.20;;;1.60;;
65656;SDS011;57397;50.096;14.404;2023-05-10T03:05:37;2.03;;;1.60;;
65656;SDS011;57397;50.096;14.404;2023-05-10T03:08:02;2.25;;;1.70;;
65656;SDS011;57397;50.096;14.404;2023-05-10T03:10:29;1.98;;;1.58;;
65656;SDS011;57397;50.096;14.404;2023-05-10T03:15:55;2.72;;;1.80;;
65656;SDS011;57397;50.096;14.404;2023-05-10T03:21:28;2.20;;;1.70;;
65656;SDS011;57397;50.096;14.404;2023-05-10T03:24:07;2.20;;;1.63;;
65656;SDS011;57397;50.096;14.404;2023-05-10T03:26:34;2.10;;;1.70;;
65656;SDS011;57397;50.096;14.404;2023-05-10T03:29:00;2.58;;;1.98;;
65656;SDS011;57397;50.096;14.404;2023-05-10T03:31:26;2.08;;;1.70;;
65656;SDS011;57397;50.096;14.404;2023-05-10T03:33:52;2.10;;;1.90;;
65656;SDS011;57397;50.096;14.404;2023-05-10T03:36:18;2.22;;;1.75;;
65656;SDS011;57397;50.096;14.404;2023-05-10T03:38:44;2.47;;;2.08;;
65656;SDS011;57397;50.096;14.404;2023-05-10T03:41:10;2.95;;;1.83;;
65656;SDS011;57397;50.096;14.404;2023-05-10T03:43:35;2.55;;;1.90;;
65656;SDS011;57397;50.096;14.404;2023-05-10T03:46:04;2.63;;;1.95;;
65656;SDS011;57397;50.096;14.404;2023-05-10T03:48:32;3.30;;;1.90;;
65656;SDS011;57397;50.096;14.404;2023-05-10T03:50:58;2.40;;;1.83;;
65656;SDS011;57397;50.096;14.404;2023-05-10T03:53:24;2.25;;;1.80;;
65656;SDS011;57397;50.096;14.404;2023-05-10T03:55:49;2.63;;;2.10;;
65656;SDS011;57397;50.096;14.404;2023-05-10T03:58:15;3.13;;;1.98;;
65656;SDS011;57397;50.096;14.404;2023-05-10T04:00:41;3.45;;;1.90;;
65656;SDS011;57397;50.096;14.404;2023-05-10T04:03:11;2.08;;;1.75;;
65656;SDS011;57397;50.096;14.404;2023-05-10T04:05:37;2.40;;;1.70;;
65656;SDS011;57397;50.096;14.404;2023-05-10T04:08:03;3.15;;;1.80;;
65656;SDS011;57397;50.096;14.404;2023-05-10T04:10:29;3.17;;;2.00;;
65656;SDS011;57397;50.096;14.404;2023-05-10T04:12:54;2.70;;;1.90;;
65656;SDS011;57397;50.096;14.404;2023-05-10T04:15:20;3.05;;;1.92;;
65656;SDS011;57397;50.096;14.404;2023-05-10T04:17:46;2.20;;;2.00;;
65656;SDS011;57397;50.096;14.404;2023-05-10T04:20:11;2.17;;;1.80;;
65656;SDS011;57397;50.096;14.404;2023-05-10T04:22:37;2.70;;;1.98;;
65656;SDS011;57397;50.096;14.404;2023-05-10T04:25:03;3.53;;;1.92;;
65656;SDS011;57397;50.096;14.404;2023-05-10T04:27:29;2.35;;;1.70;;
65656;SDS011;57397;50.096;14.404;2023-05-10T04:29:54;2.10;;;1.80;;
65656;SDS011;57397;50.096;14.404;2023-05-10T04:32:20;2.17;;;1.70;;
65656;SDS011;57397;50.096;14.404;2023-05-10T04:34:46;2.30;;;1.85;;
65656;SDS011;57397;50.096;14.404;2023-05-10T04:37:12;3.28;;;1.95;;
65656;SDS011;57397;50.096;14.404;2023-05-10T04:39:37;2.83;;;1.85;;
65656;SDS011;57397;50.096;14.404;2023-05-10T04:42:03;1.92;;;1.58;;
65656;SDS011;57397;50.096;14.404;2023-05-10T04:44:30;1.88;;;1.60;;
65656;SDS011;57397;50.096;14.404;2023-05-10T04:46:56;2.45;;;1.70;;
65656;SDS011;57397;50.096;14.404;2023-05-10T04:49:22;2.20;;;1.70;;
65656;SDS011;57397;50.096;14.404;2023-05-10T04:51:47;2.88;;;1.75;;
65656;SDS011;57397;50.096;14.404;2023-05-10T04:54:13;3.13;;;1.80;;
65656;SDS011;57397;50.096;14.404;2023-05-10T04:56:38;2.97;;;1.80;;
65656;SDS011;57397;50.096;14.404;2023-05-10T04:59:04;1.88;;;1.60;;
65656;SDS011;57397;50.096;14.404;2023-05-10T05:01:29;2.22;;;1.70;;
65656;SDS011;57397;50.096;14.404;2023-05-10T05:03:55;1.85;;;1.58;;
65656;SDS011;57397;50.096;14.404;2023-05-10T05:06:21;2.60;;;1.70;;
65656;SDS011;57397;50.096;14.404;2023-05-10T05:08:46;2.20;;;1.50;;
65656;SDS011;57397;50.096;14.404;2023-05-10T05:11:12;2.40;;;1.52;;
65656;SDS011;57397;50.096;14.404;2023-05-10T05:13:37;2.50;;;1.60;;
65656;SDS011;57397;50.096;14.404;2023-05-10T05:16:04;2.08;;;1.67;;
65656;SDS011;57397;50.096;14.404;2023-05-10T05:18:30;3.13;;;1.90;;
65656;SDS011;57397;50.096;14.404;2023-05-10T05:20:56;2.05;;;1.70;;
65656;SDS011;57397;50.096;14.404;2023-05-10T05:23:21;2.13;;;1.60;;
65656;SDS011;57397;50.096;14.404;2023-05-10T05:25:50;2.00;;;1.70;;
65656;SDS011;57397;50.096;14.404;2023-05-10T05:28:16;1.80;;;1.60;;
65656;SDS011;57397;50.096;14.404;2023-05-10T05:30:42;2.47;;;1.70;;
65656;SDS011;57397;50.096;14.404;2023-05-10T05:33:08;1.92;;;1.50;;
65656;SDS011;57397;50.096;14.404;2023-05-10T05:35:33;2.00;;;1.60;;
65656;SDS011;57397;50.096;14.404;2023-05-10T05:37:59;2.10;;;1.60;;
65656;SDS011;57397;50.096;14.404;2023-05-10T05:40:24;2.72;;;1.73;;
65656;SDS011;57397;50.096;14.404;2023-05-10T05:42:50;2.58;;;1.73;;
65656;SDS011;57397;50.096;14.404;2023-05-10T05:45:15;2.15;;;1.70;;
65656;SDS011;57397;50.096;14.404;2023-05-10T05:47:41;2.25;;;1.60;;
65656;SDS011;57397;50.096;14.404;2023-05-10T05:50:07;1.98;;;1.63;;
65656;SDS011;57397;50.096;14.404;2023-05-10T05:52:32;2.70;;;1.80;;
65656;SDS011;57397;50.096;14.404;2023-05-10T05:54:58;2.38;;;1.70;;
65656;SDS011;57397;50.096;14.404;2023-05-10T05:57:23;1.88;;;1.60;;
65656;SDS011;57397;50.096;14.404;2023-05-10T05:59:49;2.40;;;1.60;;
65656;SDS011;57397;50.096;14.404;2023-05-10T06:02:14;1.80;;;1.40;;
65656;SDS011;57397;50.096;14.404;2023-05-10T06:04:40;1.88;;;1.52;;
65656;SDS011;57397;50.096;14.404;2023-05-10T06:07:06;2.13;;;1.50;;
65656;SDS011;57397;50.096;14.404;2023-05-10T06:09:31;2.20;;;1.58;;
65656;SDS011;57397;50.096;14.404;2023-05-10T06:11:57;2.30;;;1.40;;
65656;SDS011;57397;50.096;14.404;2023-05-10T06:14:22;1.58;;;1.38;;
65656;SDS011;57397;50.096;14.404;2023-05-10T06:16:48;1.80;;;1.48;;
65656;SDS011;57397;50.096;14.404;2023-05-10T06:19:13;2.78;;;1.65;;
65656;SDS011;57397;50.096;14.404;2023-05-10T06:21:39;2.75;;;1.70;;
65656;SDS011;57397;50.096;14.404;2023-05-10T06:24:05;2.63;;;1.52;;
65656;SDS011;57397;50.096;14.404;2023-05-10T06:26:31;1.98;;;1.50;;
65656;SDS011;57397;50.096;14.404;2023-05-10T06:28:57;1.63;;;1.42;;
65656;SDS011;57397;50.096;14.404;2023-05-10T06:31:22;2.55;;;1.40;;
65656;SDS011;57397;50.096;14.404;2023-05-10T06:33:48;3.13;;;1.70;;
65656;SDS011;57397;50.096;14.404;2023-05-10T06:36:14;2.15;;;1.40;;
65656;SDS011;57397;50.096;14.404;2023-05-10T06:38:39;1.98;;;1.55;;
65656;SDS011;57397;50.096;14.404;2023-05-10T06:41:05;1.50;;;1.30;;
65656;SDS011;57397;50.096;14.404;2023-05-10T06:43:30;2.75;;;1.50;;
65656;SDS011;57397;50.096;14.404;2023-05-10T06:45:56;2.65;;;1.70;;
65656;SDS011;57397;50.096;14.404;2023-05-10T06:48:22;2.58;;;1.40;;
65656;SDS011;57397;50.096;14.404;2023-05-10T06:50:48;1.95;;;1.48;;
65656;SDS011;57397;50.096;14.404;2023-05-10T06:53:13;1.77;;;1.40;;
65656;SDS011;57397;50.096;14.404;2023-05-10T06:55:39;2.38;;;1.50;;
65656;SDS011;57397;50.096;14.404;2023-05-10T06:58:04;2.33;;;1.80;;
65656;SDS011;57397;50.096;14.404;2023-05-10T07:00:31;1.92;;;1.50;;
65656;SDS011;57397;50.096;14.404;2023-05-10T07:02:56;1.92;;;1.48;;
65656;SDS011;57397;50.096;14.404;2023-05-10T07:05:22;1.80;;;1.40;;
65656;SDS011;57397;50.096;14.404;2023-05-10T07:07:47;1.92;;;1.67;;
65656;SDS011;57397;50.096;14.404;2023-05-10T07:10:13;2.05;;;1.50;;
65656;SDS011;57397;50.096;14.404;2023-05-10T07:12:39;2.95;;;1.52;;
65656;SDS011;57397;50.096;14.404;2023-05-10T07:15:04;2.25;;;1.60;;
65656;SDS011;57397;50.096;14.404;2023-05-10T07:17:31;2.10;;;1.58;;
65656;SDS011;57397;50.096;14.404;2023-05-10T07:19:58;1.90;;;1.40;;
65656;SDS011;57397;50.096;14.404;2023-05-10T07:22:23;1.92;;;1.65;;
65656;SDS011;57397;50.096;14.404;2023-05-10T07:24:49;2.42;;;1.40;;
65656;SDS011;57397;50.096;14.404;2023-05-10T07:27:15;1.92;;;1.50;;
65656;SDS011;57397;50.096;14.404;2023-05-10T07:29:40;2.58;;;1.70;;
65656;SDS011;57397;50.096;14.404;2023-05-10T07:32:06;2.17;;;1.52;;
65656;SDS011;57397;50.096;14.404;2023-05-10T07:34:31;1.60;;;1.50;;
65656;SDS011;57397;50.096;14.404;2023-05-10T07:37:00;2.00;;;1.50;;
65656;SDS011;57397;50.096;14.404;2023-05-10T07:39:26;1.80;;;1.40;;
65656;SDS011;57397;50.096;14.404;2023-05-10T07:41:52;1.50;;;1.27;;
65656;SDS011;57397;50.096;14.404;2023-05-10T07:44:18;1.70;;;1.50;;
65656;SDS011;57397;50.096;14.404;2023-05-10T07:46:45;1.98;;;1.48;;
65656;SDS011;57397;50.096;14.404;2023-05-10T07:49:11;2.17;;;1.60;;
65656;SDS011;57397;50.096;14.404;2023-05-10T07:51:36;1.90;;;1.42;;
65656;SDS011;57397;50.096;14.404;2023-05-10T07:54:02;2.03;;;1.58;;
65656;SDS011;57397;50.096;14.404;2023-05-10T07:56:29;2.15;;;1.40;;
65656;SDS011;57397;50.096;14.404;2023-05-10T07:58:57;1.90;;;1.52;;
65656;SDS011;57397;50.096;14.404;2023-05-10T08:01:26;2.47;;;1.55;;
65656;SDS011;57397;50.096;14.404;2023-05-10T08:03:52;1.65;;;1.40;;
65656;SDS011;57397;50.096;14.404;2023-05-10T08:06:18;2.33;;;1.60;;
65656;SDS011;57397;50.096;14.404;2023-05-10T08:08:48;1.88;;;1.40;;
65656;SDS011;57397;50.096;14.404;2023-05-10T08:11:19;1.98;;;1.67;;
65656;SDS011;57397;50.096;14.404;2023-05-10T08:13:45;2.35;;;1.60;;
65656;SDS011;57397;50.096;14.404;2023-05-10T08:16:14;1.98;;;1.40;;
65656;SDS011;57397;50.096;14.404;2023-05-10T08:18:40;1.67;;;1.35;;
65656;SDS011;57397;50.096;14.404;2023-05-10T08:21:06;1.85;;;1.50;;
65656;SDS011;57397;50.096;14.404;2023-05-10T08:23:32;1.60;;;1.40;;
65656;SDS011;57397;50.096;14.404;2023-05-10T08:25:57;2.03;;;1.40;;
65656;SDS011;57397;50.096;14.404;2023-05-10T08:28:23;1.40;;;1.30;;
65656;SDS011;57397;50.096;14.404;2023-05-10T08:30:49;1.98;;;1.40;;
65656;SDS011;57397;50.096;14.404;2023-05-10T08:33:15;2.45;;;1.50;;
65656;SDS011;57397;50.096;14.404;2023-05-10T08:35:41;1.92;;;1.63;;
65656;SDS011;57397;50.096;14.404;2023-05-10T08:38:06;1.60;;;1.40;;
65656;SDS011;57397;50.096;14.404;2023-05-10T08:40:32;1.85;;;1.55;;
65656;SDS011;57397;50.096;14.404;2023-05-10T08:43:09;1.73;;;1.30;;
65656;SDS011;57397;50.096;14.404;2023-05-10T08:45:39;2.00;;;1.40;;
65656;SDS011;57397;50.096;14.404;2023-05-10T08:48:06;2.58;;;1.52;;
65656;SDS011;57397;50.096;14.404;2023-05-10T08:50:36;2.20;;;1.50;;
65656;SDS011;57397;50.096;14.404;2023-05-10T08:53:08;1.80;;;1.60;;
65656;SDS011;57397;50.096;14.404;2023-05-10T08:55:35;1.70;;;1.40;;
65656;SDS011;57397;50.096;14.404;2023-05-10T08:58:03;1.90;;;1.48;;
65656;SDS011;57397;50.096;14.404;2023-05-10T09:00:29;1.90;;;1.50;;
65656;SDS011;57397;50.096;14.404;2023-05-10T09:02:55;1.90;;;1.52;;
65656;SDS011;57397;50.096;14.404;2023-05-10T09:05:23;1.95;;;1.50;;
65656;SDS011;57397;50.096;14.404;2023-05-10T09:07:48;1.70;;;1.40;;
65656;SDS011;57397;50.096;14.404;2023-05-10T09:10:14;1.60;;;1.40;;
65656;SDS011;57397;50.096;14.404;2023-05-10T09:12:40;1.55;;;1.42;;
65656;SDS011;57397;50.096;14.404;2023-05-10T09:15:06;3.35;;;1.48;;
65656;SDS011;57397;50.096;14.404;2023-05-10T09:17:32;1.90;;;1.40;;
65656;SDS011;57397;50.096;14.404;2023-05-10T09:19:59;2.00;;;1.50;;
65656;SDS011;57397;50.096;14.404;2023-05-10T09:22:25;2.53;;;1.63;;
65656;SDS011;57397;50.096;14.404;2023-05-10T09:25:03;1.83;;;1.52;;
65656;SDS011;57397;50.096;14.404;2023-05-10T09:27:30;1.70;;;1.48;;
65656;SDS011;57397;50.096;14.404;2023-05-10T09:29:56;2.53;;;1.48;;
65656;SDS011;57397;50.096;14.404;2023-05-10T09:32:24;2.08;;;1.65;;
65656;SDS011;57397;50.096;14.404;2023-05-10T09:35:11;2.05;;;1.42;;
65656;SDS011;57397;50.096;14.404;2023-05-10T09:37:39;1.90;;;1.45;;
65656;SDS011;57397;50.096;14.404;2023-05-10T09:40:10;2.10;;;1.67;;
65656;SDS011;57397;50.096;14.404;2023-05-10T09:42:37;2.55;;;1.50;;
65656;SDS011;57397;50.096;14.404;2023-05-10T09:45:03;1.63;;;1.38;;
65656;SDS011;57397;50.096;14.404;2023-05-10T09:47:33;2.58;;;1.50;;
65656;SDS011;57397;50.096;14.404;2023-05-10T09:49:59;1.90;;;1.40;;
65656;SDS011;57397;50.096;14.404;2023-05-10T09:53:10;2.67;;;1.60;;
65656;SDS011;57397;50.096;14.404;2023-05-10T09:55:22;1.50;;;1.17;;
65656;SDS011;57397;50.096;14.404;2023-05-10T09:57:48;2.05;;;1.45;;
65656;SDS011;57397;50.096;14.404;2023-05-10T10:00:18;2.00;;;1.30;;
65656;SDS011;57397;50.096;14.404;2023-05-10T10:02:48;1.70;;;1.48;;
65656;SDS011;57397;50.096;14.404;2023-05-10T10:05:19;1.45;;;1.35;;
65656;SDS011;57397;50.096;14.404;2023-05-10T10:07:45;1.75;;;1.50;;
65656;SDS011;57397;50.096;14.404;2023-05-10T10:10:11;2.78;;;1.70;;
65656;SDS011;57397;50.096;14.404;2023-05-10T10:12:38;1.95;;;1.52;;
65656;SDS011;57397;50.096;14.404;2023-05-10T10:15:04;2.20;;;1.52;;
65656;SDS011;57397;50.096;14.404;2023-05-10T10:17:31;1.90;;;1.60;;
65656;SDS011;57397;50.096;14.404;2023-05-10T10:19:57;1.90;;;1.50;;
65656;SDS011;57397;50.096;14.404;2023-05-10T10:22:23;1.80;;;1.38;;
65656;SDS011;57397;50.096;14.404;2023-05-10T10:24:49;2.38;;;1.70;;
65656;SDS011;57397;50.096;14.404;2023-05-10T10:27:19;2.47;;;2.00;;
65656;SDS011;57397;50.096;14.404;2023-05-10T10:32:38;2.97;;;1.65;;
65656;SDS011;57397;50.096;14.404;2023-05-10T10:35:13;1.90;;;1.55;;
65656;SDS011;57397;50.096;14.404;2023-05-10T10:37:45;1.83;;;1.60;;
65656;SDS011;57397;50.096;14.404;2023-05-10T10:40:28;2.25;;;1.58;;
65656;SDS011;57397;50.096;14.404;2023-05-10T10:42:57;2.30;;;1.70;;
65656;SDS011;57397;50.096;14.404;2023-05-10T10:45:24;1.80;;;1.60;;
65656;SDS011;57397;50.096;14.404;2023-05-10T10:48:14;1.80;;;1.52;;
65656;SDS011;57397;50.096;14.404;2023-05-10T10:50:45;2.67;;;1.63;;
65656;SDS011;57397;50.096;14.404;2023-05-10T10:53:11;2.10;;;1.70;;
65656;SDS011;57397;50.096;14.404;2023-05-10T10:55:45;1.88;;;1.55;;
65656;SDS011;57397;50.096;14.404;2023-05-10T10:58:12;1.80;;;1.55;;
65656;SDS011;57397;50.096;14.404;2023-05-10T11:01:14;1.95;;;1.30;;
65656;SDS011;57397;50.096;14.404;2023-05-10T11:03:54;2.45;;;1.75;;
65656;SDS011;57397;50.096;14.404;2023-05-10T11:06:30;1.73;;;1.52;;
65656;SDS011;57397;50.096;14.404;2023-05-10T11:09:06;2.10;;;1.50;;
65656;SDS011;57397;50.096;14.404;2023-05-10T11:11:34;1.77;;;1.42;;
65656;SDS011;57397;50.096;14.404;2023-05-10T11:14:04;2.22;;;1.58;;
65656;SDS011;57397;50.096;14.404;2023-05-10T11:16:40;1.95;;;1.63;;
65656;SDS011;57397;50.096;14.404;2023-05-10T11:19:07;2.10;;;1.50;;
65656;SDS011;57397;50.096;14.404;2023-05-10T11:21:44;1.63;;;1.50;;
65656;SDS011;57397;50.096;14.404;2023-05-10T11:24:20;1.95;;;1.55;;
65656;SDS011;57397;50.096;14.404;2023-05-10T11:26:49;1.90;;;1.50;;
65656;SDS011;57397;50.096;14.404;2023-05-10T11:29:15;2.58;;;1.63;;
65656;SDS011;57397;50.096;14.404;2023-05-10T11:31:44;2.67;;;1.67;;
65656;SDS011;57397;50.096;14.404;2023-05-10T11:34:11;1.70;;;1.55;;
65656;SDS011;57397;50.096;14.404;2023-05-10T11:36:39;1.90;;;1.60;;
65656;SDS011;57397;50.096;14.404;2023-05-10T11:39:05;1.80;;;1.50;;
65656;SDS011;57397;50.096;14.404;2023-05-10T11:41:30;2.22;;;1.70;;
65656;SDS011;57397;50.096;14.404;2023-05-10T11:43:57;2.03;;;1.60;;
65656;SDS011;57397;50.096;14.404;2023-05-10T11:46:23;1.95;;;1.60;;
65656;SDS011;57397;50.096;14.404;2023-05-10T11:48:50;1.80;;;1.60;;
65656;SDS011;57397;50.096;14.404;2023-05-10T11:51:24;1.95;;;1.75;;
65656;SDS011;57397;50.096;14.404;2023-05-10T11:53:50;1.90;;;1.60;;
65656;SDS011;57397;50.096;14.404;2023-05-10T11:56:18;1.92;;;1.55;;
65656;SDS011;57397;50.096;14.404;2023-05-10T11:58:43;1.63;;;1.52;;
65656;SDS011;57397;50.096;14.404;2023-05-10T12:01:09;2.33;;;1.73;;
65656;SDS011;57397;50.096;14.404;2023-05-10T12:03:35;2.00;;;1.55;;
65656;SDS011;57397;50.096;14.404;2023-05-10T12:06:02;2.20;;;1.77;;
65656;SDS011;57397;50.096;14.404;2023-05-10T12:08:28;1.95;;;1.60;;
65656;SDS011;57397;50.096;14.404;2023-05-10T12:11:05;2.20;;;1.80;;
65656;SDS011;57397;50.096;14.404;2023-05-10T12:13:31;2.80;;;1.80;;
65656;SDS011;57397;50.096;14.404;2023-05-10T12:15:57;1.70;;;1.50;;
65656;SDS011;57397;50.096;14.404;2023-05-10T12:18:26;1.70;;;1.45;;
65656;SDS011;57397;50.096;14.404;2023-05-10T12:20:52;2.00;;;1.80;;
65656;SDS011;57397;50.096;14.404;2023-05-10T12:23:18;1.92;;;1.75;;
65656;SDS011;57397;50.096;14.404;2023-05-10T12:25:45;2.20;;;1.77;;
65656;SDS011;57397;50.096;14.404;2023-05-10T12:28:11;2.40;;;1.88;;
65656;SDS011;57397;50.096;14.404;2023-05-10T12:30:37;2.10;;;1.70;;
65656;SDS011;57397;50.096;14.404;2023-05-10T12:33:07;1.92;;;1.73;;
65656;SDS011;57397;50.096;14.404;2023-05-10T12:35:49;2.03;;;1.65;;
65656;SDS011;57397;50.096;14.404;2023-05-10T12:38:26;2.70;;;1.77;;
65656;SDS011;57397;50.096;14.404;2023-05-10T12:41:02;2.67;;;1.77;;
65656;SDS011;57397;50.096;14.404;2023-05-10T12:43:32;1.90;;;1.58;;
65656;SDS011;57397;50.096;14.404;2023-05-10T12:45:58;1.90;;;1.60;;
65656;SDS011;57397;50.096;14.404;2023-05-10T12:48:24;1.88;;;1.50;;
65656;SDS011;57397;50.096;14.404;2023-05-10T12:50:50;1.90;;;1.70;;
65656;SDS011;57397;50.096;14.404;2023-05-10T12:53:16;1.90;;;1.65;;
65656;SDS011;57397;50.096;14.404;2023-05-10T12:55:42;2.50;;;1.85;;
65656;SDS011;57397;50.096;14.404;2023-05-10T12:58:08;2.15;;;1.80;;
65656;SDS011;57397;50.096;14.404;2023-05-10T13:00:33;2.63;;;1.60;;
65656;SDS011;57397;50.096;14.404;2023-05-10T13:02:59;1.90;;;1.55;;
65656;SDS011;57397;50.096;14.404;2023-05-10T13:05:24;2.88;;;1.60;;
65656;SDS011;57397;50.096;14.404;2023-05-10T13:07:50;1.80;;;1.50;;
65656;SDS011;57397;50.096;14.404;2023-05-10T13:10:15;2.40;;;1.73;;
65656;SDS011;57397;50.096;14.404;2023-05-10T13:12:41;1.90;;;1.65;;
65656;SDS011;57397;50.096;14.404;2023-05-10T13:15:07;2.50;;;1.70;;
65656;SDS011;57397;50.096;14.404;2023-05-10T13:17:32;2.00;;;1.60;;
65656;SDS011;57397;50.096;14.404;2023-05-10T13:19:58;2.42;;;1.85;;
65656;SDS011;57397;50.096;14.404;2023-05-10T13:22:23;2.03;;;1.60;;
65656;SDS011;57397;50.096;14.404;2023-05-10T13:24:49;1.88;;;1.60;;
65656;SDS011;57397;50.096;14.404;2023-05-10T13:27:14;2.17;;;1.70;;
65656;SDS011;57397;50.096;14.404;2023-05-10T13:29:40;2.00;;;1.70;;
65656;SDS011;57397;50.096;14.404;2023-05-10T13:32:05;2.25;;;1.60;;
65656;SDS011;57397;50.096;14.404;2023-05-10T13:34:31;1.70;;;1.45;;
65656;SDS011;57397;50.096;14.404;2023-05-10T13:36:56;2.00;;;1.80;;
65656;SDS011;57397;50.096;14.404;2023-05-10T13:39:22;1.83;;;1.63;;
65656;SDS011;57397;50.096;14.404;2023-05-10T13:41:49;1.80;;;1.55;;
65656;SDS011;57397;50.096;14.404;2023-05-10T13:44:15;2.22;;;1.80;;
65656;SDS011;57397;50.096;14.404;2023-05-10T13:46:41;1.55;;;1.45;;
65656;SDS011;57397;50.096;14.404;2023-05-10T13:49:08;2.05;;;1.80;;
65656;SDS011;57397;50.096;14.404;2023-05-10T13:51:34;2.17;;;1.88;;
65656;SDS011;57397;50.096;14.404;2023-05-10T13:53:59;2.53;;;1.77;;
65656;SDS011;57397;50.096;14.404;2023-05-10T13:56:25;2.15;;;1.75;;
65656;SDS011;57397;50.096;14.404;2023-05-10T13:58:51;1.90;;;1.70;;
65656;SDS011;57397;50.096;14.404;2023-05-10T14:01:16;2.03;;;1.77;;
65656;SDS011;57397;50.096;14.404;2023-05-10T14:03:42;2.30;;;1.77;;
65656;SDS011;57397;50.096;14.404;2023-05-10T14:06:07;2.42;;;1.70;;
65656;SDS011;57397;50.096;14.404;2023-05-10T14:08:33;2.38;;;1.70;;
65656;SDS011;57397;50.096;14.404;2023-05-10T14:10:59;2.10;;;1.70;;
65656;SDS011;57397;50.096;14.404;2023-05-10T14:13:25;2.20;;;1.73;;
65656;SDS011;57397;50.096;14.404;2023-05-10T14:15:51;2.30;;;1.60;;
65656;SDS011;57397;50.096;14.404;2023-05-10T14:18:17;2.28;;;1.67;;
65656;SDS011;57397;50.096;14.404;2023-05-10T14:20:43;2.28;;;1.70;;
65656;SDS011;57397;50.096;14.404;2023-05-10T14:23:08;2.40;;;1.70;;
65656;SDS011;57397;50.096;14.404;2023-05-10T14:25:34;1.92;;;1.70;;
65656;SDS011;57397;50.096;14.404;2023-05-10T14:27:59;2.25;;;1.90;;
65656;SDS011;57397;50.096;14.404;2023-05-10T14:30:25;1.88;;;1.50;;
65656;SDS011;57397;50.096;14.404;2023-05-10T14:32:51;2.33;;;1.70;;
65656;SDS011;57397;50.096;14.404;2023-05-10T14:35:19;1.77;;;1.55;;
65656;SDS011;57397;50.096;14.404;2023-05-10T14:37:45;2.20;;;1.90;;
65656;SDS011;57397;50.096;14.404;2023-05-10T14:40:10;1.90;;;1.63;;
65656;SDS011;57397;50.096;14.404;2023-05-10T14:42:37;2.17;;;1.70;;
65656;SDS011;57397;50.096;14.404;2023-05-10T14:45:03;2.00;;;1.60;;
65656;SDS011;57397;50.096;14.404;2023-05-10T14:47:29;2.50;;;1.80;;
65656;SDS011;57397;50.096;14.404;2023-05-10T14:49:55;2.70;;;1.80;;
65656;SDS011;57397;50.096;14.404;2023-05-10T14:52:20;3.05;;;2.00;;
65656;SDS011;57397;50.096;14.404;2023-05-10T14:54:46;2.00;;;1.70;;
65656;SDS011;57397;50.096;14.404;2023-05-10T14:57:11;1.92;;;1.70;;
65656;SDS011;57397;50.096;14.404;2023-05-10T14:59:37;2.22;;;1.75;;
65656;SDS011;57397;50.096;14.404;2023-05-10T15:02:03;2.47;;;1.77;;